New Memphis, Illinois
Current Conditions -  °F | °C
As of 6:58 AM on Wednesday 22 Oct 2014 (Local Time) from KBLV Reporting Station
Clear Clear  
Wind Chill: 39°   Ceiling: Unl
Heat Index: 39°   Visibility: 10mi
Dew Point: 38°   Wind: 1mph
Humidity: 99%   Direction: 330°NNW
Pressure: 30.29"   Gusts: NA
Location:  38.48°N, 89.68°W
Report Text: KBLV 221158Z 33001KT 10SM CLR 04/04 A3029 RMK AO2A SLP262 T00370035 10076 20035 52017
Loading
Personal Weather Stations






























Interactive Weather Map
Tropical Storm Tracking
New forecast layout! Learn more

10-Day Weather Forecast

Advertisements
Track Severe Weather on mobile